Terminal Aerodrome Forecast
Issued by NWS Mobile, AL

Current Version | Previous Version | Text Only | Print | Product List | Glossary On
Versions: 1 2 3 4 5 6 7 8 9 10 11 12 13
000
FTUS44 KMOB 181100 RRA
TAFMOB
TAF
KMOB 181141Z 1812/1912 03011KT 5SM RA BR OVC009
     FM181500 03014KT 5SM -RA OVC015
     FM181800 03017KT P6SM -RA BKN020
     FM190100 36012KT P6SM BKN030=

USA.gov is the U.S. government's official web portal to all federal, state and local government web resources and services.